Strona główna
Zdjęcia satelitarne 15-dni prognozyKlimatMeteorologia morska Cyklony Błyskawica LotniskoFAQ Gazetka O
Pogoda : Europa Afryka Ameryka Północna Ameryka Południowa Azja Australia-Oceania Inny
Języki Kontakt

Asunción, Paragwaj

Aeropuerto Internacional Silvio Pettirossi (Luque)

Szerokość geograficzna: 25-16S, Długość geograficzna: 057-38W, wysokość: 101 m


METAR: SGAS 211800Z 15009KT 070V200 CAVOK 34/03 Q1015
TAF: SGAS 211530Z 2118/2218 14007KT CAVOK TX34/2119Z TN20/2210Z BECMG 2209/2212 08007KT

czas: 15:20 (18:20 UTC)

Aktualna obserwacja pogody

Raport powstał 20 minut temu, godzina 18:00 UTC
Wiatr 09 kt od południowo-południowy wschód, zmienny między wschodnio-północny wschód i południowo-południowy zachód
Temperatura 34°C
Wilgotność 14%
Ciśnienie 1015 hPa
Widzialność 10 km lub więcej
Brak chmur poniżej 1500 m i brak chmur cumulonimbus

Jednostka miary

Prognoza

Raport powstał 02 godziny i 50 minut temu, godzina 15:30 UTC
Prognoza ważna od 21 godzina 18 UTC do 22 godzina 18 UTC
Wiatr 07 kt od południowy wschód
Widzialność 10 km lub więcej
Brak chmur poniżej 1500 m i brak chmur cumulonimbus
Stopniowe zmiany
od 22 godzina 09 UTC do 22 godzina 12 UTC
Wiatr 07 kt od wschód
Informacje na tej stronie internetowej podlegają klauzuli o wyłączeniu odpowiedzialności
Pogoda : Europa Afryka Ameryka Północna Ameryka Południowa Azja Australia-Oceania Inny
Zdjęcia satelitarne 15-dni prognozyKlimatMeteorologia morska Cyklony Błyskawica LotniskoFAQ Języki Kontakt Gazetka O